Time;durP1;ratioP1;P1;durP2;ratioP2;P2;SDS_P1;SDS_P2;PMS_P1;PMS_P2;Temp;Humidity;BMP_temperature;BMP_pressure;BME280_temperature;BME280_humidity;BME280_pressure;Samples;Min_cycle;Max_cycle;Signal;HPM_P1;HPM_P2
2021/01/22 00:00:22;;;;;;;111.45;54.78;;;;;;;;;;6214108;28;20579;-67
2021/01/22 00:03:24;;;;;;;113.40;54.80;;;;;;;;;;6216314;28;20061;-67
2021/01/22 00:06:25;;;;;;;118.55;55.38;;;;;;;;;;6221417;28;20541;-66
2021/01/22 00:09:26;;;;;;;113.32;55.55;;;;;;;;;;6225718;28;20809;-67
2021/01/22 00:12:28;;;;;;;116.75;53.45;;;;;;;;;;6220766;28;20620;-67
2021/01/22 00:15:30;;;;;;;102.80;52.80;;;;;;;;;;6222716;28;20059;-67
2021/01/22 00:18:32;;;;;;;108.22;54.00;;;;;;;;;;6224177;28;20046;-67
2021/01/22 00:21:33;;;;;;;106.72;53.05;;;;;;;;;;6222426;28;20423;-67
2021/01/22 00:24:34;;;;;;;120.72;57.40;;;;;;;;;;6213622;28;20060;-67
2021/01/22 00:27:35;;;;;;;104.65;51.90;;;;;;;;;;6219763;28;20136;-66
2021/01/22 00:30:36;;;;;;;105.53;52.70;;;;;;;;;;6222158;28;20140;-68
2021/01/22 00:33:38;;;;;;;108.78;53.70;;;;;;;;;;6213929;28;20401;-69
2021/01/22 00:36:39;;;;;;;244.48;115.05;;;;;;;;;;6211709;28;20093;-68
2021/01/22 00:39:40;;;;;;;238.85;109.93;;;;;;;;;;6210104;28;20072;-68
2021/01/22 00:42:41;;;;;;;176.45;90.13;;;;;;;;;;6211877;28;20052;-68
2021/01/22 00:45:42;;;;;;;152.70;73.53;;;;;;;;;;6214296;28;20058;-68
2021/01/22 00:48:44;;;;;;;145.23;73.55;;;;;;;;;;6217540;28;20046;-67
2021/01/22 00:51:45;;;;;;;149.55;70.50;;;;;;;;;;6215440;28;20057;-67
2021/01/22 00:54:46;;;;;;;113.88;55.15;;;;;;;;;;6215996;28;20050;-68
2021/01/22 00:57:47;;;;;;;99.78;50.65;;;;;;;;;;6215226;28;20053;-67
2021/01/22 01:00:48;;;;;;;100.18;51.20;;;;;;;;;;6224349;28;20041;-67
2021/01/22 01:03:50;;;;;;;100.40;52.15;;;;;;;;;;6222862;28;20067;-67
2021/01/22 01:06:51;;;;;;;108.28;53.72;;;;;;;;;;6211613;28;20137;-67
2021/01/22 01:09:52;;;;;;;104.07;50.53;;;;;;;;;;6209426;28;20052;-67
2021/01/22 01:12:53;;;;;;;102.25;51.60;;;;;;;;;;6213445;28;20528;-68
2021/01/22 01:15:54;;;;;;;107.75;51.72;;;;;;;;;;6217234;28;20041;-68
2021/01/22 01:18:56;;;;;;;101.95;51.58;;;;;;;;;;6230798;28;20076;-68
2021/01/22 01:21:57;;;;;;;96.88;49.95;;;;;;;;;;6216004;28;20064;-69
2021/01/22 01:24:58;;;;;;;102.03;49.33;;;;;;;;;;6212293;28;20044;-67
2021/01/22 01:27:59;;;;;;;108.82;50.97;;;;;;;;;;6212587;28;20509;-67
2021/01/22 01:31:00;;;;;;;102.63;50.08;;;;;;;;;;6216836;28;20152;-68
2021/01/22 01:34:02;;;;;;;95.50;49.13;;;;;;;;;;6207332;28;20396;-67
2021/01/22 01:37:03;;;;;;;100.28;49.15;;;;;;;;;;6210248;28;20084;-69
2021/01/22 01:40:05;;;;;;;95.82;47.05;;;;;;;;;;6212247;28;20048;-67
2021/01/22 01:43:06;;;;;;;99.78;49.13;;;;;;;;;;6215495;28;20041;-69
2021/01/22 01:46:08;;;;;;;96.95;48.63;;;;;;;;;;6219792;28;20543;-68
2021/01/22 01:49:09;;;;;;;96.90;47.28;;;;;;;;;;6219831;28;20060;-69
2021/01/22 01:52:12;;;;;;;100.05;49.38;;;;;;;;;;6217820;28;20058;-67
2021/01/22 01:55:13;;;;;;;98.57;50.72;;;;;;;;;;6216877;28;20042;-65
2021/01/22 01:58:14;;;;;;;99.80;49.83;;;;;;;;;;6219504;28;20107;-66
2021/01/22 02:01:17;;;;;;;95.10;49.50;;;;;;;;;;6212890;28;20173;-67
2021/01/22 02:04:19;;;;;;;95.45;47.55;;;;;;;;;;6208954;28;20046;-66
2021/01/22 02:07:21;;;;;;;101.50;50.65;;;;;;;;;;6211418;28;20446;-67
2021/01/22 02:10:23;;;;;;;98.15;48.30;;;;;;;;;;6214299;28;20091;-67
2021/01/22 02:13:24;;;;;;;97.57;48.15;;;;;;;;;;6224519;28;20052;-67
2021/01/22 02:16:25;;;;;;;93.13;48.45;;;;;;;;;;6222935;28;20128;-67
2021/01/22 02:19:38;;;;;;;94.18;47.97;;;;;;;;;;6217256;28;20051;-66
2021/01/22 02:22:39;;;;;;;95.97;49.53;;;;;;;;;;6221747;28;20136;-66
2021/01/22 02:25:42;;;;;;;103.97;49.38;;;;;;;;;;6213107;28;20119;-67
2021/01/22 02:28:45;;;;;;;102.20;52.08;;;;;;;;;;6217996;28;20045;-66
2021/01/22 02:31:47;;;;;;;107.10;53.38;;;;;;;;;;6216260;28;20046;-66
2021/01/22 02:34:50;;;;;;;107.88;53.05;;;;;;;;;;6220734;28;20038;-67
2021/01/22 02:37:52;;;;;;;111.22;52.50;;;;;;;;;;6221660;28;20046;-66
2021/01/22 02:40:56;;;;;;;109.97;51.88;;;;;;;;;;6215776;28;20446;-67
2021/01/22 02:43:58;;;;;;;109.35;53.90;;;;;;;;;;6213185;28;20045;-66
2021/01/22 02:47:00;;;;;;;111.78;53.40;;;;;;;;;;6220450;28;20474;-66
2021/01/22 02:50:01;;;;;;;100.05;50.15;;;;;;;;;;6217569;28;20398;-66
2021/01/22 02:53:02;;;;;;;108.32;51.88;;;;;;;;;;6217505;28;20046;-64
2021/01/22 02:56:06;;;;;;;104.40;51.05;;;;;;;;;;6219679;28;20417;-65
2021/01/22 02:59:13;;;;;;;112.80;54.80;;;;;;;;;;6218402;28;20053;-65
2021/01/22 03:02:19;;;;;;;111.65;52.60;;;;;;;;;;6221583;28;20066;-67
2021/01/22 03:05:23;;;;;;;105.03;52.80;;;;;;;;;;6218179;28;20141;-67
2021/01/22 03:08:26;;;;;;;112.95;54.00;;;;;;;;;;6215082;28;20052;-66
2021/01/22 03:11:29;;;;;;;116.45;57.78;;;;;;;;;;6214766;28;20071;-67
2021/01/22 03:14:33;;;;;;;117.28;54.83;;;;;;;;;;6215825;28;20038;-66
2021/01/22 03:17:35;;;;;;;110.53;53.88;;;;;;;;;;6220853;28;20526;-67
2021/01/22 03:20:36;;;;;;;110.80;53.38;;;;;;;;;;6221254;28;20060;-67
2021/01/22 03:23:37;;;;;;;111.50;52.13;;;;;;;;;;6220215;28;20089;-67
2021/01/22 03:26:38;;;;;;;102.35;51.97;;;;;;;;;;6219839;28;20703;-68
2021/01/22 03:29:39;;;;;;;108.00;52.80;;;;;;;;;;6217723;28;20058;-67
2021/01/22 03:32:40;;;;;;;107.43;51.50;;;;;;;;;;6214684;28;20095;-68
2021/01/22 03:35:41;;;;;;;106.70;51.33;;;;;;;;;;6217792;28;20485;-68
2021/01/22 03:38:43;;;;;;;101.35;49.17;;;;;;;;;;6217692;28;20041;-68
2021/01/22 03:41:44;;;;;;;106.80;50.17;;;;;;;;;;6218314;28;20056;-66
2021/01/22 03:44:46;;;;;;;99.00;47.63;;;;;;;;;;6218168;28;20042;-66
2021/01/22 03:47:47;;;;;;;106.47;48.85;;;;;;;;;;6215930;28;20184;-66
2021/01/22 03:50:48;;;;;;;107.65;49.55;;;;;;;;;;6223183;28;20470;-66
2021/01/22 03:53:49;;;;;;;102.65;48.10;;;;;;;;;;6222232;28;20091;-69
2021/01/22 03:56:50;;;;;;;105.68;48.83;;;;;;;;;;6213714;28;20485;-67
2021/01/22 03:59:52;;;;;;;108.68;51.42;;;;;;;;;;6215431;28;20088;-70
2021/01/22 04:02:53;;;;;;;99.72;49.10;;;;;;;;;;6211758;28;20050;-66
2021/01/22 04:05:56;;;;;;;102.65;49.60;;;;;;;;;;6217524;28;20052;-67
2021/01/22 04:08:57;;;;;;;102.05;48.55;;;;;;;;;;6209074;28;20046;-66
2021/01/22 04:11:58;;;;;;;106.57;49.88;;;;;;;;;;6207755;28;20184;-69
2021/01/22 04:15:00;;;;;;;98.88;48.75;;;;;;;;;;6212732;28;20156;-67
2021/01/22 04:18:01;;;;;;;101.97;48.72;;;;;;;;;;6214579;28;20048;-68
2021/01/22 04:21:02;;;;;;;96.72;48.05;;;;;;;;;;6218738;28;20046;-68
2021/01/22 04:24:03;;;;;;;109.63;53.15;;;;;;;;;;6207596;28;20038;-67
2021/01/22 04:27:05;;;;;;;108.97;52.95;;;;;;;;;;6217247;28;20712;-69
2021/01/22 04:30:08;;;;;;;117.22;52.40;;;;;;;;;;6219416;28;20061;-68
2021/01/22 04:33:09;;;;;;;117.27;53.57;;;;;;;;;;6220212;28;20051;-68
2021/01/22 04:36:10;;;;;;;126.15;55.85;;;;;;;;;;6216893;28;20058;-67
2021/01/22 04:39:11;;;;;;;127.07;52.42;;;;;;;;;;6219217;28;20496;-68
2021/01/22 04:42:12;;;;;;;115.82;54.90;;;;;;;;;;6204685;28;20048;-67
2021/01/22 04:45:14;;;;;;;111.63;51.63;;;;;;;;;;6215779;28;20087;-67
2021/01/22 04:48:16;;;;;;;119.95;56.60;;;;;;;;;;6219660;28;20200;-69
2021/01/22 04:51:17;;;;;;;116.95;53.08;;;;;;;;;;6219730;28;20050;-72
2021/01/22 04:54:21;;;;;;;125.43;54.70;;;;;;;;;;6220972;28;20536;-69
2021/01/22 04:57:22;;;;;;;123.95;54.92;;;;;;;;;;6223543;28;20050;-69
2021/01/22 05:00:24;;;;;;;123.75;53.65;;;;;;;;;;6221039;28;20042;-68
2021/01/22 05:03:27;;;;;;;127.30;56.60;;;;;;;;;;6219811;28;20052;-69
2021/01/22 05:06:28;;;;;;;119.03;50.55;;;;;;;;;;6213434;28;20046;-68
2021/01/22 05:09:29;;;;;;;117.40;50.80;;;;;;;;;;6212547;28;20064;-68
2021/01/22 05:12:34;;;;;;;123.55;58.05;;;;;;;;;;6214505;28;20045;-67
2021/01/22 05:15:36;;;;;;;117.53;51.45;;;;;;;;;;6221378;28;20054;-68
2021/01/22 05:18:37;;;;;;;119.85;51.95;;;;;;;;;;6214362;28;20137;-69
2021/01/22 05:21:39;;;;;;;117.72;48.83;;;;;;;;;;6214022;28;20057;-70
2021/01/22 05:24:40;;;;;;;122.00;51.05;;;;;;;;;;6216110;28;20075;-67
2021/01/22 05:27:47;;;;;;;128.82;51.42;;;;;;;;;;6215856;28;20030;-68
2021/01/22 05:30:56;;;;;;;117.65;50.30;;;;;;;;;;6220247;28;20052;-70
2021/01/22 05:33:59;;;;;;;107.97;51.03;;;;;;;;;;6217908;28;20044;-68
2021/01/22 05:37:03;;;;;;;124.75;55.53;;;;;;;;;;6223606;28;20091;-68
2021/01/22 05:40:08;;;;;;;121.22;56.65;;;;;;;;;;6212497;28;20099;-69
2021/01/22 05:43:09;;;;;;;126.82;50.90;;;;;;;;;;6217518;28;20069;-67
2021/01/22 05:46:13;;;;;;;126.95;55.80;;;;;;;;;;6214447;28;20049;-65
2021/01/22 05:49:14;;;;;;;127.57;52.20;;;;;;;;;;6217561;28;20477;-66
2021/01/22 05:52:20;;;;;;;119.80;51.38;;;;;;;;;;6214476;28;20128;-65
2021/01/22 05:55:23;;;;;;;126.40;52.35;;;;;;;;;;6211247;28;20041;-68
2021/01/22 05:58:28;;;;;;;121.90;53.90;;;;;;;;;;6210420;28;20128;-68
2021/01/22 06:01:30;;;;;;;117.55;50.03;;;;;;;;;;6208451;28;20078;-69
2021/01/22 06:04:31;;;;;;;117.22;48.97;;;;;;;;;;6213056;28;20045;-67
2021/01/22 06:07:32;;;;;;;112.68;47.95;;;;;;;;;;6210157;28;20064;-66
2021/01/22 06:10:38;;;;;;;118.72;49.20;;;;;;;;;;6211788;28;20046;-68
2021/01/22 06:13:40;;;;;;;114.32;49.30;;;;;;;;;;6222269;28;20049;-67
2021/01/22 06:16:44;;;;;;;104.10;44.58;;;;;;;;;;6226500;28;20559;-66
2021/01/22 06:19:46;;;;;;;95.38;44.03;;;;;;;;;;6224311;28;20048;-66
2021/01/22 06:22:55;;;;;;;87.00;42.88;;;;;;;;;;6219055;28;20141;-66
2021/01/22 06:25:56;;;;;;;75.82;36.53;;;;;;;;;;6212420;28;20069;-65
2021/01/22 06:29:01;;;;;;;69.32;33.53;;;;;;;;;;6210694;28;22928;-65
2021/01/22 06:32:04;;;;;;;68.68;33.78;;;;;;;;;;6211332;28;20542;-66
2021/01/22 06:35:07;;;;;;;66.00;33.75;;;;;;;;;;6211687;28;20111;-65
2021/01/22 06:38:08;;;;;;;68.47;33.20;;;;;;;;;;6217672;28;20129;-67
2021/01/22 06:41:09;;;;;;;69.93;34.08;;;;;;;;;;6217031;28;20038;-67
2021/01/22 06:44:12;;;;;;;68.65;34.10;;;;;;;;;;6212961;28;20061;-69
2021/01/22 06:47:14;;;;;;;66.13;33.92;;;;;;;;;;6205547;28;20064;-65
2021/01/22 06:50:20;;;;;;;75.13;36.53;;;;;;;;;;6210701;28;20485;-66
2021/01/22 06:53:21;;;;;;;85.38;38.22;;;;;;;;;;6206501;28;20498;-67
2021/01/22 06:56:22;;;;;;;77.22;36.65;;;;;;;;;;6213921;28;20054;-70
2021/01/22 06:59:37;;;;;;;76.47;37.65;;;;;;;;;;6207230;28;20120;-66
2021/01/22 07:02:40;;;;;;;78.93;37.00;;;;;;;;;;6210044;28;20042;-66
2021/01/22 07:05:42;;;;;;;82.13;39.88;;;;;;;;;;6210434;28;20547;-65
2021/01/22 07:08:53;;;;;;;76.85;36.78;;;;;;;;;;6214217;28;20053;-66
2021/01/22 07:11:58;;;;;;;77.20;38.10;;;;;;;;;;6210620;28;20638;-65
2021/01/22 07:14:59;;;;;;;78.65;37.45;;;;;;;;;;6210782;28;20416;-66
2021/01/22 07:18:01;;;;;;;83.65;39.97;;;;;;;;;;6213698;28;20042;-66
2021/01/22 07:21:19;;;;;;;75.28;38.60;;;;;;;;;;6214528;28;20177;-66
2021/01/22 07:24:21;;;;;;;79.60;38.53;;;;;;;;;;6208335;28;20038;-68
2021/01/22 07:27:22;;;;;;;78.80;38.45;;;;;;;;;;6207033;28;20054;-66
2021/01/22 07:30:25;;;;;;;82.82;38.47;;;;;;;;;;6205879;28;20061;-65
2021/01/22 07:33:37;;;;;;;83.50;38.70;;;;;;;;;;6213104;28;20112;-68
2021/01/22 07:36:49;;;;;;;82.38;37.85;;;;;;;;;;6213003;28;20058;-66
2021/01/22 07:39:52;;;;;;;75.63;37.33;;;;;;;;;;6211497;28;20461;-67
2021/01/22 07:42:53;;;;;;;80.53;37.58;;;;;;;;;;6210841;28;20131;-66
2021/01/22 07:46:04;;;;;;;79.60;38.90;;;;;;;;;;6215575;28;20125;-67
2021/01/22 07:49:08;;;;;;;78.95;36.20;;;;;;;;;;6214328;28;20149;-68
2021/01/22 07:52:09;;;;;;;77.93;35.97;;;;;;;;;;6212642;28;20054;-66
2021/01/22 07:55:14;;;;;;;76.65;36.65;;;;;;;;;;6210775;28;20193;-66
2021/01/22 07:58:16;;;;;;;77.95;37.53;;;;;;;;;;6200379;28;20050;-68
2021/01/22 08:01:22;;;;;;;80.40;36.90;;;;;;;;;;5515200;28;10000694;-65
2021/01/22 08:04:28;;;;;;;81.15;38.13;;;;;;;;;;6208343;28;21689;-70
2021/01/22 08:07:37;;;;;;;72.63;37.13;;;;;;;;;;6211724;28;20057;-66
2021/01/22 08:10:38;;;;;;;78.80;37.58;;;;;;;;;;6209489;28;20054;-66
2021/01/22 08:13:42;;;;;;;75.90;37.97;;;;;;;;;;6214413;28;20149;-70
2021/01/22 08:16:43;;;;;;;82.88;38.83;;;;;;;;;;6211135;28;20052;-66
2021/01/22 08:19:45;;;;;;;84.32;40.05;;;;;;;;;;6211780;28;20042;-66
2021/01/22 08:22:51;;;;;;;77.38;36.88;;;;;;;;;;6210863;28;20049;-66
2021/01/22 08:25:58;;;;;;;81.07;37.17;;;;;;;;;;6221403;28;20057;-67
2021/01/22 08:28:59;;;;;;;80.63;37.10;;;;;;;;;;6211845;28;20053;-67
2021/01/22 08:32:03;;;;;;;76.47;37.55;;;;;;;;;;6212515;28;20061;-68
2021/01/22 08:35:06;;;;;;;84.70;38.35;;;;;;;;;;6209063;28;20153;-67
2021/01/22 08:38:07;;;;;;;80.50;37.53;;;;;;;;;;6218573;28;20075;-68
2021/01/22 08:41:08;;;;;;;80.38;38.72;;;;;;;;;;6214697;28;20125;-70
2021/01/22 08:44:09;;;;;;;77.80;37.25;;;;;;;;;;6209747;28;20511;-69
2021/01/22 08:47:10;;;;;;;80.32;38.05;;;;;;;;;;6212276;28;20048;-69
2021/01/22 08:50:16;;;;;;;84.70;38.17;;;;;;;;;;6216833;28;20088;-67
2021/01/22 08:53:17;;;;;;;78.82;38.85;;;;;;;;;;6216254;28;20049;-67
2021/01/22 08:56:21;;;;;;;81.82;38.63;;;;;;;;;;6215469;28;20088;-66
2021/01/22 08:59:22;;;;;;;81.05;38.00;;;;;;;;;;6210612;28;20042;-67
2021/01/22 09:02:36;;;;;;;88.43;38.92;;;;;;;;;;6213154;28;20045;-67
2021/01/22 09:05:48;;;;;;;82.25;40.05;;;;;;;;;;6214323;28;20056;-70
2021/01/22 09:08:57;;;;;;;88.93;38.10;;;;;;;;;;5520327;28;10000355;-67
2021/01/22 09:11:58;;;;;;;80.38;37.58;;;;;;;;;;6204449;28;20062;-68
2021/01/22 09:15:00;;;;;;;77.60;37.15;;;;;;;;;;6212457;28;20468;-65
2021/01/22 09:18:02;;;;;;;82.78;39.80;;;;;;;;;;6219694;28;20096;-66
2021/01/22 09:21:05;;;;;;;81.93;39.45;;;;;;;;;;6220320;28;20146;-65
2021/01/22 09:24:06;;;;;;;78.47;38.55;;;;;;;;;;6205062;28;20133;-69
2021/01/22 09:27:07;;;;;;;85.38;39.22;;;;;;;;;;6212132;28;20050;-68
2021/01/22 09:30:10;;;;;;;83.35;39.28;;;;;;;;;;6213476;28;20121;-68
2021/01/22 09:33:11;;;;;;;81.90;38.35;;;;;;;;;;6208321;28;20058;-68
2021/01/22 09:36:13;;;;;;;85.43;39.53;;;;;;;;;;6220516;28;20122;-66
2021/01/22 09:39:14;;;;;;;82.85;40.15;;;;;;;;;;6216274;28;20129;-65
2021/01/22 09:42:15;;;;;;;84.47;38.20;;;;;;;;;;6222667;28;20046;-66
2021/01/22 09:45:17;;;;;;;82.65;38.90;;;;;;;;;;6215135;28;20103;-65
2021/01/22 09:48:18;;;;;;;80.82;38.30;;;;;;;;;;6224240;28;20136;-68
2021/01/22 09:51:20;;;;;;;87.10;41.00;;;;;;;;;;6217737;28;20050;-70
2021/01/22 09:54:21;;;;;;;86.88;40.63;;;;;;;;;;6217297;28;20701;-66
2021/01/22 09:57:22;;;;;;;82.05;38.80;;;;;;;;;;6223325;28;20145;-66
2021/01/22 10:00:24;;;;;;;88.90;39.65;;;;;;;;;;6220569;28;20054;-66
2021/01/22 10:03:25;;;;;;;89.05;40.45;;;;;;;;;;6218933;28;20177;-67
2021/01/22 10:06:27;;;;;;;80.78;40.00;;;;;;;;;;6219804;28;20050;-66
2021/01/22 10:09:28;;;;;;;78.72;38.70;;;;;;;;;;6219223;28;20038;-68
2021/01/22 10:12:29;;;;;;;82.20;39.40;;;;;;;;;;6214285;28;20069;-68
2021/01/22 10:15:30;;;;;;;75.13;36.88;;;;;;;;;;6212603;28;20042;-64
2021/01/22 10:18:31;;;;;;;80.75;39.80;;;;;;;;;;6222404;28;20085;-67
2021/01/22 10:21:33;;;;;;;81.03;38.83;;;;;;;;;;6216409;28;20763;-65
2021/01/22 10:24:34;;;;;;;82.65;39.90;;;;;;;;;;6219108;28;20172;-65
2021/01/22 10:27:35;;;;;;;78.68;40.00;;;;;;;;;;6207717;28;20202;-67
2021/01/22 10:30:36;;;;;;;80.97;39.78;;;;;;;;;;6182695;28;20053;-69
2021/01/22 10:33:38;;;;;;;77.53;38.08;;;;;;;;;;6216176;28;20134;-64
2021/01/22 10:36:40;;;;;;;78.93;38.38;;;;;;;;;;6218236;28;20056;-66
2021/01/22 10:39:40;;;;;;;82.55;40.03;;;;;;;;;;6217927;28;20132;-67
2021/01/22 10:42:41;;;;;;;84.70;40.10;;;;;;;;;;6218030;28;20121;-66
2021/01/22 10:45:43;;;;;;;79.25;40.50;;;;;;;;;;6216367;28;20050;-66
2021/01/22 10:48:44;;;;;;;78.43;39.35;;;;;;;;;;6207026;28;20049;-66
2021/01/22 10:51:45;;;;;;;75.05;37.75;;;;;;;;;;6209049;28;20042;-69
2021/01/22 10:54:46;;;;;;;76.38;37.08;;;;;;;;;;6200088;28;20112;-69
2021/01/22 10:57:47;;;;;;;74.78;38.15;;;;;;;;;;6212400;28;20084;-65
2021/01/22 11:00:49;;;;;;;75.28;38.20;;;;;;;;;;6208626;28;20053;-66
2021/01/22 11:03:50;;;;;;;76.28;37.92;;;;;;;;;;6208470;28;20044;-66
2021/01/22 11:06:52;;;;;;;72.57;37.42;;;;;;;;;;6211249;28;20060;-70
2021/01/22 11:09:53;;;;;;;82.25;42.97;;;;;;;;;;6212531;28;20137;-69
2021/01/22 11:12:54;;;;;;;84.63;39.53;;;;;;;;;;6211347;28;20054;-67
2021/01/22 11:15:55;;;;;;;95.95;48.78;;;;;;;;;;6215090;28;20053;-67
2021/01/22 11:18:56;;;;;;;95.93;43.00;;;;;;;;;;6215176;28;20049;-67
2021/01/22 11:21:58;;;;;;;85.93;41.95;;;;;;;;;;6212285;28;20072;-67
2021/01/22 11:24:59;;;;;;;69.68;36.75;;;;;;;;;;6211367;28;20054;-69
2021/01/22 11:28:00;;;;;;;65.97;35.88;;;;;;;;;;6207621;28;21107;-67
2021/01/22 11:31:02;;;;;;;69.10;33.00;;;;;;;;;;6207625;28;20054;-67
2021/01/22 11:34:03;;;;;;;61.28;32.10;;;;;;;;;;6210169;28;20061;-68
2021/01/22 11:37:05;;;;;;;58.25;30.70;;;;;;;;;;6206165;28;20045;-66
2021/01/22 11:40:07;;;;;;;53.08;30.00;;;;;;;;;;6206996;28;20038;-66
2021/01/22 11:43:09;;;;;;;47.92;28.25;;;;;;;;;;6210488;28;20049;-68
2021/01/22 11:46:11;;;;;;;46.60;25.60;;;;;;;;;;6208635;28;20516;-67
2021/01/22 11:49:12;;;;;;;44.05;25.35;;;;;;;;;;6214133;28;20064;-69
2021/01/22 11:52:13;;;;;;;51.65;27.85;;;;;;;;;;6207251;28;20072;-68
2021/01/22 11:55:15;;;;;;;48.85;29.48;;;;;;;;;;6204655;28;20072;-72
2021/01/22 11:58:16;;;;;;;48.22;27.30;;;;;;;;;;6221958;28;20124;-68
2021/01/22 12:01:17;;;;;;;46.58;29.42;;;;;;;;;;6210712;28;20046;-69
2021/01/22 12:04:18;;;;;;;48.78;27.88;;;;;;;;;;6220218;28;20402;-68
2021/01/22 12:07:20;;;;;;;47.47;27.70;;;;;;;;;;6213410;28;20559;-69
2021/01/22 12:10:21;;;;;;;49.40;28.83;;;;;;;;;;6215890;28;20519;-69
2021/01/22 12:13:22;;;;;;;49.35;26.63;;;;;;;;;;6216792;28;20046;-69
2021/01/22 12:16:24;;;;;;;42.60;24.88;;;;;;;;;;6222465;28;20133;-71
2021/01/22 12:19:25;;;;;;;40.05;23.85;;;;;;;;;;6216584;28;20050;-68
2021/01/22 12:22:26;;;;;;;39.90;24.55;;;;;;;;;;6217669;28;20054;-69
2021/01/22 12:25:27;;;;;;;42.38;25.27;;;;;;;;;;6221962;28;20591;-74
2021/01/22 12:28:29;;;;;;;40.78;25.67;;;;;;;;;;6217708;28;20113;-75
2021/01/22 12:31:30;;;;;;;40.03;24.58;;;;;;;;;;6220397;28;20060;-68
2021/01/22 12:34:31;;;;;;;36.78;23.20;;;;;;;;;;6220434;28;20435;-69
2021/01/22 12:37:32;;;;;;;36.28;22.88;;;;;;;;;;6221779;28;20152;-68
2021/01/22 12:40:33;;;;;;;37.88;22.90;;;;;;;;;;6225555;28;20113;-68
2021/01/22 12:43:34;;;;;;;39.40;24.05;;;;;;;;;;6222334;28;20056;-69
2021/01/22 12:46:35;;;;;;;33.15;20.48;;;;;;;;;;6214300;28;20053;-70
2021/01/22 12:49:38;;;;;;;34.50;20.98;;;;;;;;;;6217338;28;20103;-68
2021/01/22 12:52:39;;;;;;;33.58;21.45;;;;;;;;;;6219676;28;20058;-69
2021/01/22 12:55:41;;;;;;;34.17;22.98;;;;;;;;;;6216421;28;20086;-69
2021/01/22 12:58:43;;;;;;;33.97;21.40;;;;;;;;;;6220132;28;20060;-68
2021/01/22 13:01:44;;;;;;;31.30;20.13;;;;;;;;;;6215501;28;21832;-69
2021/01/22 13:04:45;;;;;;;30.52;19.60;;;;;;;;;;6216158;28;20038;-68
2021/01/22 13:07:47;;;;;;;31.85;20.35;;;;;;;;;;6211683;28;20042;-68
2021/01/22 13:10:48;;;;;;;30.50;20.00;;;;;;;;;;6211224;28;20148;-68
2021/01/22 13:13:49;;;;;;;29.52;20.58;;;;;;;;;;6212907;28;20053;-69
2021/01/22 13:16:50;;;;;;;27.23;19.13;;;;;;;;;;6211094;28;20088;-68
2021/01/22 13:19:51;;;;;;;26.73;18.30;;;;;;;;;;6209601;28;20523;-68
2021/01/22 13:22:53;;;;;;;24.80;17.17;;;;;;;;;;6220950;28;20065;-70
2021/01/22 13:25:54;;;;;;;22.30;15.93;;;;;;;;;;6214390;28;20049;-68
2021/01/22 13:28:55;;;;;;;20.27;14.85;;;;;;;;;;6213054;28;20054;-71
2021/01/22 13:31:56;;;;;;;22.52;15.35;;;;;;;;;;6219238;28;20618;-71
2021/01/22 13:34:57;;;;;;;26.00;16.67;;;;;;;;;;6216538;28;20046;-70
2021/01/22 13:37:59;;;;;;;24.27;16.27;;;;;;;;;;6210925;28;20068;-69
2021/01/22 13:41:00;;;;;;;22.40;17.02;;;;;;;;;;6213960;28;20092;-70
2021/01/22 13:44:01;;;;;;;26.73;17.30;;;;;;;;;;6213057;28;20532;-69
2021/01/22 13:47:02;;;;;;;27.38;18.38;;;;;;;;;;6214924;28;20041;-69
2021/01/22 13:50:04;;;;;;;31.67;20.17;;;;;;;;;;6215816;28;20137;-69
2021/01/22 13:53:06;;;;;;;38.55;23.27;;;;;;;;;;6215974;28;20132;-69
2021/01/22 13:56:07;;;;;;;41.35;25.20;;;;;;;;;;6210691;28;20050;-69
2021/01/22 13:59:08;;;;;;;39.33;24.15;;;;;;;;;;6214953;28;20071;-69
2021/01/22 14:02:09;;;;;;;40.88;26.02;;;;;;;;;;6213411;28;20042;-69
2021/01/22 14:05:12;;;;;;;40.13;25.17;;;;;;;;;;6215519;28;20099;-69
2021/01/22 14:08:14;;;;;;;39.78;26.02;;;;;;;;;;6217228;28;20564;-69
2021/01/22 14:11:15;;;;;;;42.10;26.63;;;;;;;;;;6212855;28;20076;-69
2021/01/22 14:14:16;;;;;;;40.50;25.30;;;;;;;;;;6215742;28;20055;-69
2021/01/22 14:17:17;;;;;;;40.22;25.13;;;;;;;;;;6214015;28;20050;-68
2021/01/22 14:20:18;;;;;;;43.90;26.15;;;;;;;;;;6210603;28;20042;-68
2021/01/22 14:23:19;;;;;;;39.67;25.75;;;;;;;;;;6215616;28;20511;-70
2021/01/22 14:26:22;;;;;;;38.78;24.00;;;;;;;;;;6215573;28;20089;-69
2021/01/22 14:29:23;;;;;;;38.28;24.45;;;;;;;;;;6221365;28;20399;-71
2021/01/22 14:32:24;;;;;;;40.08;23.98;;;;;;;;;;6218249;28;20046;-72
2021/01/22 14:35:25;;;;;;;39.83;24.77;;;;;;;;;;6218711;28;20046;-71
2021/01/22 14:38:27;;;;;;;38.38;24.17;;;;;;;;;;6213721;28;20052;-69
2021/01/22 14:41:28;;;;;;;39.53;24.08;;;;;;;;;;5518134;28;10000740;-69
2021/01/22 14:44:29;;;;;;;40.20;24.33;;;;;;;;;;6216231;28;20560;-70
2021/01/22 14:47:30;;;;;;;38.70;22.98;;;;;;;;;;6215105;28;20046;-70
2021/01/22 14:50:31;;;;;;;37.55;24.55;;;;;;;;;;6215187;28;20413;-69
2021/01/22 14:53:33;;;;;;;36.83;23.58;;;;;;;;;;6217927;28;20649;-71
2021/01/22 14:56:34;;;;;;;40.70;24.02;;;;;;;;;;6221824;28;20088;-69
2021/01/22 14:59:35;;;;;;;33.42;22.65;;;;;;;;;;6218937;28;20045;-69
2021/01/22 15:02:36;;;;;;;36.42;22.40;;;;;;;;;;6213738;28;20398;-69
2021/01/22 15:05:37;;;;;;;36.25;22.90;;;;;;;;;;6223483;28;20049;-72
2021/01/22 15:08:42;;;;;;;41.03;26.58;;;;;;;;;;6222044;28;20069;-69
2021/01/22 15:11:43;;;;;;;43.33;26.77;;;;;;;;;;6209345;28;20115;-69
2021/01/22 15:14:44;;;;;;;39.88;24.85;;;;;;;;;;6218158;28;20064;-69
2021/01/22 15:17:45;;;;;;;32.58;22.52;;;;;;;;;;6215545;28;20428;-72
2021/01/22 15:20:46;;;;;;;36.38;23.70;;;;;;;;;;6209633;28;20038;-69
2021/01/22 15:23:48;;;;;;;35.28;22.02;;;;;;;;;;6221109;28;20132;-68
2021/01/22 15:26:49;;;;;;;31.13;21.08;;;;;;;;;;6221132;28;20172;-68
2021/01/22 15:29:50;;;;;;;31.90;20.92;;;;;;;;;;6220225;28;20124;-69
2021/01/22 15:32:53;;;;;;;29.80;19.90;;;;;;;;;;6214046;28;20045;-69
2021/01/22 15:35:54;;;;;;;29.25;20.15;;;;;;;;;;6216426;28;20431;-69
2021/01/22 15:38:56;;;;;;;30.17;19.60;;;;;;;;;;6212898;28;20052;-68
2021/01/22 15:41:57;;;;;;;32.60;19.58;;;;;;;;;;6210337;28;20045;-68
2021/01/22 15:44:58;;;;;;;31.70;20.50;;;;;;;;;;6213473;28;20120;-68
2021/01/22 15:47:59;;;;;;;26.58;18.95;;;;;;;;;;6212681;28;20693;-68
2021/01/22 15:51:00;;;;;;;27.02;19.02;;;;;;;;;;6209954;28;20088;-68
2021/01/22 15:54:02;;;;;;;27.42;19.00;;;;;;;;;;6213944;28;20049;-71
2021/01/22 15:57:03;;;;;;;30.23;19.10;;;;;;;;;;6217513;28;20042;-69
2021/01/22 16:00:09;;;;;;;25.27;17.88;;;;;;;;;;6219497;28;20046;-67
2021/01/22 16:03:10;;;;;;;27.08;18.23;;;;;;;;;;6216717;28;20041;-69
2021/01/22 16:06:11;;;;;;;26.13;18.25;;;;;;;;;;6214431;28;20041;-69
2021/01/22 16:09:12;;;;;;;30.27;19.13;;;;;;;;;;6213890;28;20050;-70
2021/01/22 16:12:13;;;;;;;22.55;16.13;;;;;;;;;;6215703;28;20435;-68
2021/01/22 16:15:15;;;;;;;25.52;17.60;;;;;;;;;;6212078;28;20050;-68
2021/01/22 16:18:17;;;;;;;27.77;18.50;;;;;;;;;;6218502;28;20052;-69
2021/01/22 16:21:18;;;;;;;27.58;18.42;;;;;;;;;;6215863;28;20054;-68
2021/01/22 16:24:20;;;;;;;32.00;19.88;;;;;;;;;;6219671;28;20048;-70
2021/01/22 16:27:21;;;;;;;24.92;17.58;;;;;;;;;;6215947;28;20054;-68
2021/01/22 16:30:23;;;;;;;26.45;19.10;;;;;;;;;;6214661;28;20049;-70
2021/01/22 16:33:24;;;;;;;30.23;18.45;;;;;;;;;;6212745;28;20094;-68
2021/01/22 16:36:25;;;;;;;28.25;18.27;;;;;;;;;;6218019;28;20045;-68
2021/01/22 16:39:27;;;;;;;28.48;18.42;;;;;;;;;;6209434;28;20100;-68
2021/01/22 16:42:29;;;;;;;24.27;17.05;;;;;;;;;;6209472;28;20050;-70
2021/01/22 16:45:30;;;;;;;22.80;15.95;;;;;;;;;;6209881;28;20061;-69
2021/01/22 16:48:33;;;;;;;23.45;16.42;;;;;;;;;;6214486;28;20041;-69
2021/01/22 16:51:34;;;;;;;24.83;16.65;;;;;;;;;;6209138;28;20041;-68
2021/01/22 16:54:36;;;;;;;23.10;15.05;;;;;;;;;;6212924;28;20145;-68
2021/01/22 16:57:37;;;;;;;22.23;16.27;;;;;;;;;;6217572;28;20148;-72
2021/01/22 17:00:38;;;;;;;24.52;16.88;;;;;;;;;;6227248;28;20060;-73
2021/01/22 17:03:39;;;;;;;24.50;16.25;;;;;;;;;;6229594;28;20099;-70
2021/01/22 17:06:40;;;;;;;22.73;15.50;;;;;;;;;;5519972;28;10000833;-71
2021/01/22 17:09:42;;;;;;;25.20;16.10;;;;;;;;;;6213139;28;20102;-69
2021/01/22 17:12:44;;;;;;;21.33;15.23;;;;;;;;;;6207600;28;20069;-73
2021/01/22 17:15:45;;;;;;;23.48;16.15;;;;;;;;;;6224233;28;20044;-68
2021/01/22 17:18:46;;;;;;;21.02;14.85;;;;;;;;;;6207791;28;20717;-72
2021/01/22 17:21:47;;;;;;;18.90;13.82;;;;;;;;;;6215328;28;20049;-70
2021/01/22 17:24:49;;;;;;;17.67;12.77;;;;;;;;;;6212432;28;20511;-69
2021/01/22 17:27:50;;;;;;;17.20;12.43;;;;;;;;;;6211417;28;20046;-69
2021/01/22 17:30:51;;;;;;;17.50;12.45;;;;;;;;;;6209639;28;20161;-70
2021/01/22 17:33:52;;;;;;;14.40;11.40;;;;;;;;;;6215318;28;20050;-70